createdAt,value
2018-09-28T00:01:40.213Z,8.00
2018-09-28T00:04:08.321Z,8.63
2018-09-28T00:06:36.405Z,9.43
2018-09-28T00:09:07.291Z,7.70
2018-09-28T00:11:35.396Z,7.10
2018-09-28T00:14:03.531Z,7.63
2018-09-28T00:16:31.624Z,9.83
2018-09-28T00:18:59.784Z,8.10
2018-09-28T00:21:27.890Z,9.47
2018-09-28T00:23:56.008Z,8.27
2018-09-28T00:26:24.135Z,8.53
2018-09-28T00:28:52.217Z,6.90
2018-09-28T00:31:20.312Z,7.30
2018-09-28T00:33:48.398Z,8.53
2018-09-28T00:36:16.493Z,8.13
2018-09-28T00:38:51.347Z,8.70
2018-09-28T00:41:19.469Z,7.97
2018-09-28T00:43:47.553Z,7.97
2018-09-28T00:46:15.660Z,8.30
2018-09-28T00:48:43.782Z,9.03
2018-09-28T00:51:11.877Z,8.20
2018-09-28T00:53:39.969Z,8.80
2018-09-28T00:56:08.073Z,7.70
2018-09-28T00:58:36.193Z,8.80
2018-09-28T01:01:04.331Z,8.90
2018-09-28T01:03:32.417Z,8.97
2018-09-28T01:06:00.518Z,8.90
2018-09-28T01:08:28.964Z,8.40
2018-09-28T01:10:57.072Z,7.90
2018-09-28T01:13:25.161Z,8.63
2018-09-28T01:15:53.269Z,9.17
2018-09-28T01:18:21.367Z,8.17
2018-09-28T01:20:49.459Z,8.67
2018-09-28T01:23:17.593Z,7.77
2018-09-28T01:25:45.694Z,8.40
2018-09-28T01:28:13.772Z,9.17
2018-09-28T01:30:41.898Z,9.87
2018-09-28T01:33:10.010Z,8.03
2018-09-28T01:35:38.108Z,8.20
2018-09-28T01:38:06.188Z,8.17
2018-09-28T01:40:34.310Z,7.60
2018-09-28T01:43:02.391Z,8.17
2018-09-28T01:45:30.489Z,7.90
2018-09-28T01:47:58.585Z,8.50
2018-09-28T01:50:26.699Z,8.27
2018-09-28T01:52:54.767Z,8.90
2018-09-28T01:55:22.882Z,8.60
2018-09-28T01:57:50.977Z,8.40
2018-09-28T02:00:19.078Z,8.93
2018-09-28T02:02:47.160Z,7.97
2018-09-28T02:05:15.251Z,8.87
2018-09-28T02:07:43.512Z,8.63
2018-09-28T02:10:11.618Z,8.90
2018-09-28T02:12:39.830Z,9.33
2018-09-28T02:15:07.854Z,8.70
2018-09-28T02:17:35.960Z,9.17
2018-09-28T02:20:04.137Z,9.17
2018-09-28T02:22:32.251Z,8.50
2018-09-28T02:25:00.332Z,9.57
2018-09-28T02:27:28.429Z,10.53
2018-09-28T02:29:56.529Z,10.27
2018-09-28T02:32:24.619Z,10.73
2018-09-28T02:34:52.721Z,9.17
2018-09-28T02:37:20.796Z,9.63
2018-09-28T02:39:48.898Z,10.10
2018-09-28T02:42:16.982Z,9.73
2018-09-28T02:44:45.120Z,11.68
2018-09-28T02:47:13.209Z,10.63
2018-09-28T02:49:41.354Z,11.77
2018-09-28T02:52:09.445Z,12.37
2018-09-28T02:54:37.535Z,10.60
2018-09-28T02:57:05.771Z,10.97
2018-09-28T02:59:33.788Z,11.43
2018-09-28T03:02:01.913Z,12.47
2018-09-28T03:04:29.998Z,12.43
2018-09-28T03:06:58.077Z,13.20
2018-09-28T03:09:26.164Z,14.23
2018-09-28T03:11:54.267Z,14.03
2018-09-28T03:14:22.365Z,13.30
2018-09-28T03:16:50.490Z,13.75
2018-09-28T03:19:18.581Z,12.10
2018-09-28T03:21:46.689Z,12.00
2018-09-28T03:24:14.785Z,14.40
2018-09-28T03:26:42.873Z,12.83
2018-09-28T03:29:10.971Z,14.10
2018-09-28T03:31:39.075Z,14.95
2018-09-28T03:34:07.179Z,14.37
2018-09-28T03:36:35.306Z,16.12
2018-09-28T03:39:05.270Z,15.73
2018-09-28T03:41:33.435Z,15.75
2018-09-28T03:44:01.509Z,17.10
2018-09-28T03:46:29.614Z,14.83
2018-09-28T03:48:57.714Z,14.65
2018-09-28T03:51:25.813Z,16.00
2018-09-28T03:53:53.934Z,16.55
2018-09-28T03:56:22.070Z,15.90
2018-09-28T03:58:50.161Z,17.23
2018-09-28T04:01:18.345Z,15.73
2018-09-28T04:03:46.425Z,16.57
2018-09-28T04:06:14.561Z,18.00
2018-09-28T04:08:42.652Z,17.20
2018-09-28T04:11:10.793Z,15.85
2018-09-28T04:13:38.901Z,18.27
2018-09-28T04:16:07.044Z,19.15
2018-09-28T04:18:35.175Z,18.12
2018-09-28T04:21:03.289Z,17.25
2018-09-28T04:23:31.395Z,18.57
2018-09-28T04:25:59.525Z,20.50
2018-09-28T04:28:27.628Z,24.30
2018-09-28T04:30:55.734Z,17.80
2018-09-28T04:33:23.962Z,17.37
2018-09-28T04:35:52.170Z,18.48
2018-09-28T04:38:20.294Z,19.55
2018-09-28T04:40:48.919Z,18.85
2018-09-28T04:43:17.821Z,20.12
2018-09-28T04:45:45.925Z,18.37
2018-09-28T04:48:14.025Z,17.60
2018-09-28T04:50:42.139Z,21.23
2018-09-28T04:53:10.240Z,20.35
2018-09-28T04:55:38.349Z,19.37
2018-09-28T04:58:06.795Z,20.50
2018-09-28T05:00:35.684Z,19.87
2018-09-28T05:03:04.737Z,19.62
2018-09-28T05:05:33.640Z,22.27
2018-09-28T05:08:01.949Z,21.07
2018-09-28T05:10:30.843Z,22.23
2018-09-28T05:12:58.957Z,23.30
2018-09-28T05:15:27.168Z,22.58
2018-09-28T05:17:55.741Z,23.35
2018-09-28T05:20:24.759Z,23.15
2018-09-28T05:22:52.846Z,23.80
2018-09-28T05:25:21.008Z,23.10
2018-09-28T05:27:49.039Z,20.88
2018-09-28T05:30:17.128Z,23.15
2018-09-28T05:32:45.979Z,24.02
2018-09-28T05:35:14.010Z,24.52
2018-09-28T05:37:42.233Z,28.85
2018-09-28T05:40:10.496Z,30.25
2018-09-28T05:42:38.989Z,28.40
2018-09-28T05:45:07.115Z,27.27
2018-09-28T05:47:35.218Z,29.48
2018-09-28T05:50:03.317Z,30.70
2018-09-28T05:52:31.411Z,29.85
2018-09-28T05:54:59.505Z,31.40
2018-09-28T05:57:27.624Z,32.93
2018-09-28T06:00:01.155Z,34.20
2018-09-28T06:02:35.082Z,34.50
2018-09-28T06:05:08.452Z,32.00
2018-09-28T06:07:36.552Z,34.50
2018-09-28T06:10:04.894Z,33.27
2018-09-28T06:12:33.004Z,33.60
2018-09-28T06:15:01.118Z,37.10
2018-09-28T06:17:35.986Z,36.30
2018-09-28T06:20:04.178Z,31.87
2018-09-28T06:22:32.310Z,34.48
2018-09-28T06:25:00.386Z,38.47
2018-09-28T06:27:28.486Z,39.70
2018-09-28T06:29:56.649Z,42.17
2018-09-28T06:32:24.671Z,43.47
2018-09-28T06:34:52.777Z,43.47
2018-09-28T06:37:20.868Z,41.60
2018-09-28T06:39:48.956Z,40.90
2018-09-28T06:42:17.049Z,39.57
2018-09-28T06:44:45.237Z,40.57
2018-09-28T06:47:13.230Z,42.03
2018-09-28T06:49:41.414Z,38.63
2018-09-28T06:52:09.499Z,37.10
2018-09-28T06:54:37.584Z,37.03
2018-09-28T06:57:05.684Z,37.00
2018-09-28T06:59:40.546Z,39.33
2018-09-28T07:02:08.617Z,35.60
2018-09-28T07:04:36.718Z,35.67
2018-09-28T07:07:04.807Z,35.77
2018-09-28T07:09:32.982Z,39.27
2018-09-28T07:12:01.011Z,40.87
2018-09-28T07:14:29.098Z,39.57
2018-09-28T07:16:57.176Z,38.30
2018-09-28T07:19:25.306Z,38.70
2018-09-28T07:21:53.401Z,38.57
2018-09-28T07:24:21.560Z,39.60
2018-09-28T07:26:49.606Z,42.47
2018-09-28T07:29:17.786Z,46.07
2018-09-28T07:31:45.878Z,45.30
2018-09-28T07:34:13.987Z,42.63
2018-09-28T07:36:42.253Z,39.60
2018-09-28T07:39:11.359Z,42.53
2018-09-28T07:41:39.528Z,42.53
2018-09-28T07:44:07.692Z,43.27
2018-09-28T07:46:35.812Z,47.33
2018-09-28T07:49:03.974Z,50.60
2018-09-28T07:51:32.040Z,51.80
2018-09-28T07:54:00.124Z,57.30
2018-09-28T07:56:28.215Z,65.10
2018-09-28T07:58:56.317Z,65.97
2018-09-28T08:01:24.424Z,69.93
2018-09-28T08:03:52.556Z,72.47
2018-09-28T08:06:20.644Z,63.30
2018-09-28T08:08:48.727Z,66.63
2018-09-28T08:11:16.850Z,63.33
2018-09-28T08:13:44.959Z,64.50
2018-09-28T08:16:13.258Z,65.20
2018-09-28T08:18:41.364Z,68.97
2018-09-28T08:21:09.493Z,68.47
2018-09-28T08:23:37.599Z,65.03
2018-09-28T08:26:05.920Z,62.33
2018-09-28T08:28:34.022Z,58.87
2018-09-28T08:31:02.128Z,59.30
2018-09-28T08:33:30.259Z,58.07
2018-09-28T08:35:58.376Z,63.93
2018-09-28T08:38:26.485Z,68.17
2018-09-28T08:40:54.584Z,71.00
2018-09-28T08:43:22.724Z,73.13
2018-09-28T08:45:50.908Z,79.40
2018-09-28T08:48:19.029Z,80.17
2018-09-28T08:50:47.167Z,79.57
2018-09-28T08:53:15.270Z,81.47
2018-09-28T08:55:43.384Z,80.10
2018-09-28T08:58:11.490Z,76.97
2018-09-28T09:00:39.606Z,78.73
2018-09-28T09:03:07.699Z,75.17
2018-09-28T09:05:36.834Z,77.77
2018-09-28T09:08:04.935Z,75.23
2018-09-28T09:10:33.044Z,69.47
2018-09-28T09:13:01.160Z,64.23
2018-09-28T09:15:29.278Z,64.30
2018-09-28T09:17:57.440Z,61.83
2018-09-28T09:20:25.492Z,57.20
2018-09-28T09:22:53.603Z,57.70
2018-09-28T09:25:21.713Z,55.07
2018-09-28T09:27:49.830Z,52.60
2018-09-28T09:30:18.004Z,54.00
2018-09-28T09:32:46.031Z,48.80
2018-09-28T09:35:14.152Z,47.23
2018-09-28T09:37:42.254Z,43.40
2018-09-28T09:40:10.363Z,43.63
2018-09-28T09:42:38.527Z,40.40
2018-09-28T09:45:06.601Z,38.43
2018-09-28T09:47:34.711Z,37.13
2018-09-28T09:50:02.831Z,29.10
2018-09-28T09:52:30.940Z,26.10
2018-09-28T09:54:59.040Z,24.73
2018-09-28T09:57:27.267Z,23.73
2018-09-28T09:59:55.393Z,25.80
2018-09-28T10:02:29.026Z,25.80
2018-09-28T10:04:57.123Z,34.83
2018-09-28T10:07:25.227Z,23.97
2018-09-28T10:09:53.316Z,18.23
2018-09-28T10:12:21.503Z,15.37
2018-09-28T10:14:49.537Z,13.30
2018-09-28T10:17:17.643Z,12.40
2018-09-28T10:19:45.825Z,11.67
2018-09-28T10:22:13.877Z,10.47
2018-09-28T10:24:41.977Z,11.77
2018-09-28T10:27:10.099Z,10.90
2018-09-28T10:29:38.196Z,10.77
2018-09-28T10:32:06.313Z,12.37
2018-09-28T10:34:34.446Z,13.67
2018-09-28T10:37:02.913Z,12.70
2018-09-28T10:39:31.138Z,14.63
2018-09-28T10:41:59.207Z,14.43
2018-09-28T10:44:27.511Z,16.93
2018-09-28T10:46:56.339Z,15.87
2018-09-28T10:49:25.616Z,17.47
2018-09-28T10:51:54.289Z,16.80
2018-09-28T10:54:22.648Z,17.17
2018-09-28T10:56:50.745Z,16.73
2018-09-28T10:59:18.853Z,17.73
2018-09-28T11:01:46.953Z,16.63
2018-09-28T11:04:15.111Z,17.80
2018-09-28T11:06:43.195Z,16.20
2018-09-28T11:09:12.279Z,19.20
2018-09-28T11:11:41.007Z,15.40
2018-09-28T11:14:09.121Z,13.80
2018-09-28T11:16:37.218Z,13.17
2018-09-28T11:19:05.314Z,11.77
2018-09-28T11:21:33.425Z,11.73
2018-09-28T11:24:01.501Z,11.67
2018-09-28T11:26:29.635Z,12.97
2018-09-28T11:28:57.707Z,14.10
2018-09-28T11:31:25.809Z,15.30
2018-09-28T11:33:54.291Z,14.03
2018-09-28T11:36:22.394Z,13.53
2018-09-28T11:38:50.494Z,13.70
2018-09-28T11:41:18.613Z,12.37
2018-09-28T11:43:47.195Z,12.23
2018-09-28T11:49:01.179Z,7.50
2018-09-28T11:51:29.238Z,5.93
2018-09-28T11:53:57.320Z,6.30
2018-09-28T11:56:25.912Z,5.87
2018-09-28T11:58:54.568Z,5.07
2018-09-28T12:01:22.664Z,4.73
2018-09-28T12:03:50.795Z,4.67
2018-09-28T12:06:18.922Z,4.40
2018-09-28T12:08:46.936Z,3.67
2018-09-28T12:11:15.054Z,4.63
2018-09-28T12:13:43.171Z,4.90
2018-09-28T12:16:11.289Z,3.90
2018-09-28T12:18:39.474Z,3.97
2018-09-28T12:21:07.575Z,3.63
2018-09-28T12:23:35.661Z,3.13
2018-09-28T12:26:03.765Z,3.20
2018-09-28T12:28:31.867Z,3.60
2018-09-28T12:30:59.977Z,3.10
2018-09-28T12:33:28.137Z,2.67
2018-09-28T12:35:56.196Z,3.60
2018-09-28T12:38:24.299Z,4.33
2018-09-28T12:40:52.410Z,3.23
2018-09-28T12:43:20.522Z,3.13
2018-09-28T12:45:48.629Z,2.93
2018-09-28T12:48:16.780Z,2.83
2018-09-28T12:50:44.864Z,4.53
2018-09-28T12:53:12.954Z,1.97
2018-09-28T12:55:41.058Z,2.80
2018-09-28T12:58:09.171Z,2.67
2018-09-28T13:00:37.315Z,2.40
2018-09-28T13:03:05.368Z,2.60
2018-09-28T13:05:33.465Z,3.23
2018-09-28T13:08:01.569Z,2.03
2018-09-28T13:10:29.651Z,1.90
2018-09-28T13:12:57.767Z,2.17
2018-09-28T13:15:25.871Z,2.40
2018-09-28T13:17:53.975Z,3.67
2018-09-28T13:20:22.259Z,2.50
2018-09-28T13:22:50.359Z,3.70
2018-09-28T13:25:18.478Z,2.63
2018-09-28T13:27:46.668Z,3.07
2018-09-28T13:30:14.794Z,3.13
2018-09-28T13:32:42.958Z,3.00
2018-09-28T13:35:11.026Z,3.07
2018-09-28T13:37:39.130Z,2.47
2018-09-28T13:40:07.247Z,3.73
2018-09-28T13:42:35.379Z,2.90
2018-09-28T13:45:03.528Z,2.63
2018-09-28T13:47:31.575Z,2.70
2018-09-28T13:49:59.698Z,3.60
2018-09-28T13:52:27.896Z,3.17
2018-09-28T13:54:55.927Z,3.10
2018-09-28T13:57:24.019Z,2.53
2018-09-28T13:59:52.115Z,3.50
2018-09-28T14:02:20.242Z,3.20
2018-09-28T14:04:48.343Z,3.70
2018-09-28T14:07:16.507Z,2.63
2018-09-28T14:09:44.546Z,3.10
2018-09-28T14:12:12.640Z,3.67
2018-09-28T14:14:40.793Z,4.10
2018-09-28T14:17:08.833Z,3.53
2018-09-28T14:19:36.911Z,5.30
2018-09-28T14:22:04.998Z,3.70
2018-09-28T14:24:33.141Z,3.90
2018-09-28T14:27:01.192Z,4.43
2018-09-28T14:29:29.280Z,2.87
2018-09-28T14:31:57.380Z,4.80
2018-09-28T14:34:25.539Z,3.40
2018-09-28T14:36:53.547Z,3.90
2018-09-28T14:39:21.631Z,3.20
2018-09-28T14:41:49.769Z,4.97
2018-09-28T14:44:17.886Z,4.00
2018-09-28T14:46:46.035Z,3.43
2018-09-28T14:49:14.084Z,4.10
2018-09-28T14:51:42.211Z,3.13
2018-09-28T14:54:10.370Z,3.73
2018-09-28T14:56:38.449Z,4.27
2018-09-28T14:59:06.567Z,4.50
2018-09-28T15:01:34.652Z,5.27
2018-09-28T15:04:02.739Z,5.13
2018-09-28T15:06:30.875Z,4.70
2018-09-28T15:08:58.914Z,5.03
2018-09-28T15:11:27.057Z,3.87
2018-09-28T15:13:55.163Z,3.80
2018-09-28T15:16:23.306Z,3.60
2018-09-28T15:18:51.389Z,3.20
2018-09-28T15:21:19.444Z,3.73
2018-09-28T15:23:47.583Z,3.27
2018-09-28T15:26:15.679Z,3.07
2018-09-28T15:28:43.805Z,3.10
2018-09-28T15:31:11.944Z,3.20
2018-09-28T15:33:40.063Z,3.17
2018-09-28T15:36:08.217Z,3.13
2018-09-28T15:38:36.393Z,3.00
2018-09-28T15:41:04.510Z,2.50
2018-09-28T15:43:32.620Z,2.83
2018-09-28T15:46:00.848Z,3.10
2018-09-28T15:48:29.006Z,2.83
2018-09-28T15:50:57.100Z,2.37
2018-09-28T15:53:25.204Z,2.33
2018-09-28T15:55:53.318Z,3.10
2018-09-28T15:58:21.438Z,2.80
2018-09-28T16:00:49.728Z,2.77
2018-09-28T16:03:17.816Z,2.40
2018-09-28T16:05:45.930Z,2.00
2018-09-28T16:08:14.059Z,2.43
2018-09-28T16:10:42.148Z,2.60
2018-09-28T16:13:10.269Z,2.17
2018-09-28T16:15:38.358Z,2.97
2018-09-28T16:18:06.461Z,2.07
2018-09-28T16:20:34.642Z,2.50
2018-09-28T16:23:02.731Z,2.57
2018-09-28T16:25:30.837Z,2.50
2018-09-28T16:27:58.950Z,1.43
2018-09-28T16:30:27.074Z,2.70
2018-09-28T16:32:55.180Z,2.97
2018-09-28T16:35:23.292Z,3.17
2018-09-28T16:37:51.391Z,2.20
2018-09-28T16:40:19.531Z,3.40
2018-09-28T16:42:47.650Z,1.83
2018-09-28T16:45:15.759Z,1.70
2018-09-28T16:47:43.873Z,2.07
2018-09-28T16:50:11.994Z,1.93
2018-09-28T16:52:40.090Z,1.80
2018-09-28T16:55:08.252Z,1.40
2018-09-28T16:57:36.377Z,1.70
2018-09-28T17:00:04.820Z,2.53
2018-09-28T17:02:32.938Z,2.63
2018-09-28T17:05:01.040Z,1.77
2018-09-28T17:07:29.140Z,2.60
2018-09-28T17:09:57.258Z,2.07
2018-09-28T17:12:25.365Z,2.17
2018-09-28T17:14:53.573Z,2.83
2018-09-28T17:17:21.677Z,2.57
2018-09-28T17:19:49.771Z,2.70
2018-09-28T17:22:17.902Z,2.80
2018-09-28T17:24:46.068Z,2.93
2018-09-28T17:27:14.193Z,2.50
2018-09-28T17:29:42.307Z,2.27
2018-09-28T17:32:10.392Z,2.03
2018-09-28T17:34:38.611Z,3.20
2018-09-28T17:37:07.781Z,2.90
2018-09-28T17:39:36.008Z,3.10
2018-09-28T17:42:04.112Z,2.57
2018-09-28T17:44:32.201Z,3.10
2018-09-28T17:47:00.304Z,3.60
2018-09-28T17:49:28.402Z,2.50
2018-09-28T17:51:56.628Z,2.80
2018-09-28T17:54:24.800Z,4.20
2018-09-28T17:56:52.933Z,2.87
2018-09-28T17:59:21.036Z,3.10
2018-09-28T18:01:49.123Z,3.10
2018-09-28T18:04:17.847Z,2.83
2018-09-28T18:06:46.072Z,2.77
2018-09-28T18:09:14.175Z,3.40
2018-09-28T18:11:42.269Z,2.40
2018-09-28T18:14:11.057Z,2.70
2018-09-28T18:16:39.188Z,3.23
2018-09-28T18:19:08.111Z,2.63
2018-09-28T18:21:36.366Z,3.40
2018-09-28T18:24:04.457Z,3.20
2018-09-28T18:26:32.559Z,3.20
2018-09-28T18:29:00.649Z,4.03
2018-09-28T18:31:28.804Z,4.30
2018-09-28T18:33:57.005Z,3.70
2018-09-28T18:36:25.214Z,2.97
2018-09-28T18:38:53.353Z,2.50
2018-09-28T18:41:21.447Z,2.60
2018-09-28T18:43:49.538Z,2.13
2018-09-28T18:46:17.632Z,2.40
2018-09-28T18:48:45.894Z,2.37
2018-09-28T18:51:14.015Z,1.70
2018-09-28T18:53:42.089Z,2.73
2018-09-28T18:56:10.185Z,1.93
2018-09-28T18:58:38.312Z,2.30
2018-09-28T19:01:06.622Z,1.77
2018-09-28T19:03:34.802Z,1.80
2018-09-28T19:06:02.972Z,1.60
2018-09-28T19:08:30.992Z,2.00
2018-09-28T19:10:59.067Z,1.47
2018-09-28T19:13:27.235Z,2.13
2018-09-28T19:15:55.516Z,1.50
2018-09-28T19:18:23.743Z,1.90
2018-09-28T19:20:51.821Z,1.80
2018-09-28T19:23:19.932Z,2.37
2018-09-28T19:25:48.023Z,1.33
2018-09-28T19:28:16.288Z,1.80
2018-09-28T19:30:44.434Z,2.00
2018-09-28T19:33:12.552Z,1.87
2018-09-28T19:35:40.642Z,1.70
2018-09-28T19:38:08.731Z,1.67
2018-09-28T19:40:36.926Z,1.83
2018-09-28T19:43:05.108Z,1.90
2018-09-28T19:45:33.184Z,1.93
2018-09-28T19:48:01.275Z,1.63
2018-09-28T19:50:29.368Z,1.73
2018-09-28T19:52:57.496Z,1.83
2018-09-28T19:55:25.591Z,1.40
2018-09-28T19:57:53.698Z,1.23
2018-09-28T20:00:21.834Z,2.53
2018-09-28T20:02:49.921Z,1.80
2018-09-28T20:05:18.371Z,1.77
2018-09-28T20:07:46.449Z,1.70
2018-09-28T20:10:14.534Z,1.97
2018-09-28T20:12:42.748Z,1.87
2018-09-28T20:15:10.844Z,1.80
2018-09-28T20:17:39.117Z,2.07
2018-09-28T20:20:07.357Z,2.60
2018-09-28T20:22:35.555Z,2.30
2018-09-28T20:25:03.679Z,1.90
2018-09-28T20:27:31.803Z,1.80
2018-09-28T20:29:59.904Z,2.10
2018-09-28T20:32:28.030Z,1.53
2018-09-28T20:34:56.134Z,1.60
2018-09-28T20:37:24.290Z,2.10
2018-09-28T20:39:52.410Z,2.13
2018-09-28T20:42:20.540Z,1.83
2018-09-28T20:44:48.641Z,1.93
2018-09-28T20:47:16.775Z,1.83
2018-09-28T20:49:44.877Z,2.07
2018-09-28T20:52:12.985Z,1.90
2018-09-28T20:54:41.092Z,2.23
2018-09-28T20:57:09.210Z,2.53
2018-09-28T20:59:37.312Z,1.87
2018-09-28T21:02:05.440Z,1.63
2018-09-28T21:04:33.574Z,1.57
2018-09-28T21:07:01.771Z,1.90
2018-09-28T21:09:29.867Z,2.20
2018-09-28T21:11:57.990Z,1.70
2018-09-28T21:14:27.496Z,1.53
2018-09-28T21:16:55.823Z,2.00
2018-09-28T21:19:23.912Z,1.63
2018-09-28T21:21:52.070Z,2.20
2018-09-28T21:24:20.547Z,2.10
2018-09-28T21:26:48.834Z,1.87
2018-09-28T21:29:16.946Z,2.60
2018-09-28T21:31:45.068Z,1.60
2018-09-28T21:34:13.200Z,1.55
2018-09-28T21:36:41.404Z,1.73
2018-09-28T21:39:10.725Z,2.12
2018-09-28T21:41:38.986Z,2.07
2018-09-28T21:44:07.545Z,1.87
2018-09-28T21:46:35.705Z,2.55
2018-09-28T21:49:03.821Z,2.50
2018-09-28T21:51:31.912Z,2.73
2018-09-28T21:54:00.035Z,2.50
2018-09-28T21:56:28.134Z,2.00
2018-09-28T21:58:56.243Z,2.80
2018-09-28T22:01:24.351Z,2.13
2018-09-28T22:03:52.445Z,2.10
2018-09-28T22:06:20.540Z,2.60
2018-09-28T22:08:48.650Z,2.33
2018-09-28T22:11:16.727Z,1.50
2018-09-28T22:13:44.930Z,2.05
2018-09-28T22:16:12.969Z,1.80
2018-09-28T22:18:41.110Z,1.80
2018-09-28T22:21:09.232Z,1.60
2018-09-28T22:23:37.320Z,2.25
2018-09-28T22:26:05.510Z,2.40
2018-09-28T22:28:33.607Z,2.57
2018-09-28T22:31:01.691Z,2.00
2018-09-28T22:33:29.777Z,2.02
2018-09-28T22:35:57.871Z,2.35
2018-09-28T22:38:25.953Z,2.50
2018-09-28T22:40:54.355Z,2.30
2018-09-28T22:43:22.463Z,2.35
2018-09-28T22:45:50.557Z,2.10
2018-09-28T22:48:18.668Z,2.10
2018-09-28T22:50:47.161Z,2.22
2018-09-28T22:53:15.257Z,1.60
2018-09-28T22:55:43.332Z,1.60
2018-09-28T22:58:11.423Z,2.00
2018-09-28T23:00:39.513Z,3.83
2018-09-28T23:03:07.614Z,2.00
2018-09-28T23:05:35.720Z,2.10
2018-09-28T23:08:03.785Z,1.85
2018-09-28T23:10:31.895Z,2.33
2018-09-28T23:13:00.014Z,1.92
2018-09-28T23:15:28.116Z,1.70
2018-09-28T23:17:56.337Z,1.70
2018-09-28T23:20:24.423Z,2.52
2018-09-28T23:22:52.552Z,1.52
2018-09-28T23:25:20.656Z,1.60
2018-09-28T23:27:48.766Z,2.37
2018-09-28T23:30:16.888Z,2.08
2018-09-28T23:32:44.988Z,1.80
2018-09-28T23:35:13.085Z,2.05
2018-09-28T23:37:41.198Z,2.60
2018-09-28T23:40:09.292Z,2.72
2018-09-28T23:42:37.455Z,2.25
2018-09-28T23:45:05.574Z,2.10
2018-09-28T23:47:33.666Z,1.95
2018-09-28T23:50:01.761Z,1.87
2018-09-28T23:52:29.845Z,2.40
2018-09-28T23:54:57.935Z,2.37
2018-09-28T23:57:26.028Z,2.40
2018-09-28T23:59:54.111Z,2.35
